Horbury, United Kingdom
Current Conditions -  °F | °C
As of 7:50 PM on Saturday 20 Dec 2014 (Local Time) from EGNM Reporting Station
Scattered Clouds Scattered Clouds  
Wind Chill:   Ceiling: Unl
Heat Index:   Visibility: 6mi
Dew Point:   Wind: 20mph
Humidity: 87%   Direction: 270°W
Pressure: 30.24"   Gusts: 35mph
Location:  53.66°N, 1.56°W
Report Text: EGNM 201950Z 27017G30KT 240V310 9999 SCT017 SCT022 06/04 Q1024
Loading
Personal Weather Stations






























Interactive Weather Map New forecast layout! Learn more

10-Day Weather Forecast

Advertisements
Track Severe Weather on mobile